sensor_id;sensor_type;location;lat;lon;timestamp;P1;durP1;ratioP1;P2;durP2;ratioP2
45940;SDS011;31858;46.008;8.978;2024-01-25T00:00:06;3.13;;;0.25;;
45940;SDS011;31858;46.008;8.978;2024-01-25T00:10:10;1.02;;;0.30;;
45940;SDS011;31858;46.008;8.978;2024-01-25T00:20:12;0.30;;;0.30;;
45940;SDS011;31858;46.008;8.978;2024-01-25T00:30:15;0.10;;;0.10;;
45940;SDS011;31858;46.008;8.978;2024-01-25T00:40:17;0.40;;;0.10;;
45940;SDS011;31858;46.008;8.978;2024-01-25T00:50:20;0.10;;;0.10;;
45940;SDS011;31858;46.008;8.978;2024-01-25T01:00:24;0.20;;;0.20;;
45940;SDS011;31858;46.008;8.978;2024-01-25T01:10:28;0.10;;;0.05;;
45940;SDS011;31858;46.008;8.978;2024-01-25T01:20:29;0.03;;;0.03;;
45940;SDS011;31858;46.008;8.978;2024-01-25T01:30:32;0.17;;;0.13;;
45940;SDS011;31858;46.008;8.978;2024-01-25T01:40:34;0.00;;;0.00;;
45940;SDS011;31858;46.008;8.978;2024-01-25T01:50:36;0.10;;;0.10;;
45940;SDS011;31858;46.008;8.978;2024-01-25T02:00:38;0.00;;;0.00;;
45940;SDS011;31858;46.008;8.978;2024-01-25T02:10:43;0.28;;;0.10;;
45940;SDS011;31858;46.008;8.978;2024-01-25T02:20:45;0.20;;;0.17;;
45940;SDS011;31858;46.008;8.978;2024-01-25T02:30:48;0.10;;;0.08;;
45940;SDS011;31858;46.008;8.978;2024-01-25T02:40:49;0.10;;;0.10;;
45940;SDS011;31858;46.008;8.978;2024-01-25T02:50:52;0.40;;;0.10;;
45940;SDS011;31858;46.008;8.978;2024-01-25T03:00:54;0.05;;;0.05;;
45940;SDS011;31858;46.008;8.978;2024-01-25T03:10:57;0.20;;;0.03;;
45940;SDS011;31858;46.008;8.978;2024-01-25T03:20:58;0.77;;;0.10;;
45940;SDS011;31858;46.008;8.978;2024-01-25T03:31:01;0.00;;;0.00;;
45940;SDS011;31858;46.008;8.978;2024-01-25T03:41:03;0.00;;;0.00;;
45940;SDS011;31858;46.008;8.978;2024-01-25T03:51:06;0.00;;;0.00;;
45940;SDS011;31858;46.008;8.978;2024-01-25T04:01:08;0.10;;;0.10;;
45940;SDS011;31858;46.008;8.978;2024-01-25T04:11:11;6.88;;;0.45;;
45940;SDS011;31858;46.008;8.978;2024-01-25T04:21:13;0.10;;;0.10;;
45940;SDS011;31858;46.008;8.978;2024-01-25T04:31:16;0.00;;;0.00;;
45940;SDS011;31858;46.008;8.978;2024-01-25T04:41:18;0.00;;;0.00;;
45940;SDS011;31858;46.008;8.978;2024-01-25T04:51:22;0.03;;;0.03;;
45940;SDS011;31858;46.008;8.978;2024-01-25T05:01:24;0.03;;;0.03;;
45940;SDS011;31858;46.008;8.978;2024-01-25T05:11:27;0.08;;;0.08;;
45940;SDS011;31858;46.008;8.978;2024-01-25T05:21:28;47.38;;;4.28;;
45940;SDS011;31858;46.008;8.978;2024-01-25T05:31:31;24.75;;;2.42;;
45940;SDS011;31858;46.008;8.978;2024-01-25T05:41:33;0.00;;;0.00;;
45940;SDS011;31858;46.008;8.978;2024-01-25T05:51:36;0.10;;;0.10;;
45940;SDS011;31858;46.008;8.978;2024-01-25T06:01:37;0.00;;;0.00;;
45940;SDS011;31858;46.008;8.978;2024-01-25T06:11:40;1.27;;;0.20;;
45940;SDS011;31858;46.008;8.978;2024-01-25T06:21:42;1.60;;;0.10;;
45940;SDS011;31858;46.008;8.978;2024-01-25T06:31:45;13.10;;;0.65;;
45940;SDS011;31858;46.008;8.978;2024-01-25T06:41:47;0.38;;;0.20;;
45940;SDS011;31858;46.008;8.978;2024-01-25T06:51:50;6.38;;;1.40;;
45940;SDS011;31858;46.008;8.978;2024-01-25T07:01:51;0.20;;;0.20;;
45940;SDS011;31858;46.008;8.978;2024-01-25T07:11:54;0.10;;;0.10;;
45940;SDS011;31858;46.008;8.978;2024-01-25T07:21:56;0.10;;;0.10;;
45940;SDS011;31858;46.008;8.978;2024-01-25T07:31:59;0.10;;;0.10;;
45940;SDS011;31858;46.008;8.978;2024-01-25T07:42:00;0.40;;;0.30;;
45940;SDS011;31858;46.008;8.978;2024-01-25T07:52:03;0.20;;;0.20;;
45940;SDS011;31858;46.008;8.978;2024-01-25T08:02:05;0.73;;;0.25;;
45940;SDS011;31858;46.008;8.978;2024-01-25T08:12:08;3.22;;;0.32;;
45940;SDS011;31858;46.008;8.978;2024-01-25T08:22:10;4.60;;;0.40;;
45940;SDS011;31858;46.008;8.978;2024-01-25T08:32:13;1.55;;;0.10;;
45940;SDS011;31858;46.008;8.978;2024-01-25T08:42:15;0.32;;;0.20;;
45940;SDS011;31858;46.008;8.978;2024-01-25T08:52:18;0.57;;;0.28;;
45940;SDS011;31858;46.008;8.978;2024-01-25T09:02:20;0.50;;;0.50;;
45940;SDS011;31858;46.008;8.978;2024-01-25T09:12:27;0.30;;;0.30;;
45940;SDS011;31858;46.008;8.978;2024-01-25T09:22:29;3.30;;;0.80;;
45940;SDS011;31858;46.008;8.978;2024-01-25T09:32:32;9.05;;;0.85;;
45940;SDS011;31858;46.008;8.978;2024-01-25T09:42:34;3.67;;;0.47;;
45940;SDS011;31858;46.008;8.978;2024-01-25T09:52:37;12.05;;;1.80;;
45940;SDS011;31858;46.008;8.978;2024-01-25T10:02:39;0.90;;;0.40;;
45940;SDS011;31858;46.008;8.978;2024-01-25T10:12:42;2.22;;;0.50;;
45940;SDS011;31858;46.008;8.978;2024-01-25T10:22:44;0.20;;;0.20;;
45940;SDS011;31858;46.008;8.978;2024-01-25T10:32:47;0.20;;;0.20;;
45940;SDS011;31858;46.008;8.978;2024-01-25T10:42:50;2.72;;;0.50;;
45940;SDS011;31858;46.008;8.978;2024-01-25T10:52:53;3.13;;;0.80;;
45940;SDS011;31858;46.008;8.978;2024-01-25T11:02:55;0.60;;;0.57;;
45940;SDS011;31858;46.008;8.978;2024-01-25T11:12:58;1.10;;;0.40;;
45940;SDS011;31858;46.008;8.978;2024-01-25T11:23:02;3.63;;;0.55;;
45940;SDS011;31858;46.008;8.978;2024-01-25T11:33:06;0.50;;;0.30;;
45940;SDS011;31858;46.008;8.978;2024-01-25T11:43:09;0.20;;;0.20;;
45940;SDS011;31858;46.008;8.978;2024-01-25T11:53:14;3.72;;;1.13;;
45940;SDS011;31858;46.008;8.978;2024-01-25T12:03:16;0.20;;;0.20;;
45940;SDS011;31858;46.008;8.978;2024-01-25T12:13:20;0.13;;;0.10;;
45940;SDS011;31858;46.008;8.978;2024-01-25T12:23:21;0.55;;;0.17;;
45940;SDS011;31858;46.008;8.978;2024-01-25T12:33:24;0.35;;;0.20;;
45940;SDS011;31858;46.008;8.978;2024-01-25T12:43:26;1.58;;;0.50;;
45940;SDS011;31858;46.008;8.978;2024-01-25T12:53:29;4.63;;;0.88;;
45940;SDS011;31858;46.008;8.978;2024-01-25T13:03:31;0.40;;;0.35;;
45940;SDS011;31858;46.008;8.978;2024-01-25T13:13:34;6.15;;;1.48;;
45940;SDS011;31858;46.008;8.978;2024-01-25T13:23:35;1.08;;;0.30;;
45940;SDS011;31858;46.008;8.978;2024-01-25T13:33:38;3.17;;;0.40;;
45940;SDS011;31858;46.008;8.978;2024-01-25T13:43:40;0.15;;;0.15;;
45940;SDS011;31858;46.008;8.978;2024-01-25T13:53:43;0.40;;;0.10;;
45940;SDS011;31858;46.008;8.978;2024-01-25T14:03:44;2.28;;;0.50;;
45940;SDS011;31858;46.008;8.978;2024-01-25T14:13:47;12.80;;;6.38;;
45940;SDS011;31858;46.008;8.978;2024-01-25T14:23:49;4.63;;;3.65;;
45940;SDS011;31858;46.008;8.978;2024-01-25T14:33:52;45.03;;;31.20;;
45940;SDS011;31858;46.008;8.978;2024-01-25T14:43:53;46.33;;;35.58;;
45940;SDS011;31858;46.008;8.978;2024-01-25T14:53:56;54.70;;;39.25;;
45940;SDS011;31858;46.008;8.978;2024-01-25T15:03:58;68.00;;;46.85;;
45940;SDS011;31858;46.008;8.978;2024-01-25T15:14:01;73.75;;;56.55;;
45940;SDS011;31858;46.008;8.978;2024-01-25T15:24:03;79.45;;;63.90;;
45940;SDS011;31858;46.008;8.978;2024-01-25T15:34:06;85.75;;;66.78;;
45940;SDS011;31858;46.008;8.978;2024-01-25T15:44:08;89.95;;;71.63;;
45940;SDS011;31858;46.008;8.978;2024-01-25T15:54:11;100.97;;;74.25;;
45940;SDS011;31858;46.008;8.978;2024-01-25T16:04:12;99.38;;;76.00;;
45940;SDS011;31858;46.008;8.978;2024-01-25T16:14:15;93.85;;;73.07;;
45940;SDS011;31858;46.008;8.978;2024-01-25T16:24:17;94.68;;;73.20;;
45940;SDS011;31858;46.008;8.978;2024-01-25T16:34:20;94.80;;;71.13;;
45940;SDS011;31858;46.008;8.978;2024-01-25T16:44:22;96.32;;;75.55;;
45940;SDS011;31858;46.008;8.978;2024-01-25T16:54:25;99.70;;;72.38;;
45940;SDS011;31858;46.008;8.978;2024-01-25T17:04:26;99.28;;;70.03;;
45940;SDS011;31858;46.008;8.978;2024-01-25T17:14:29;91.88;;;68.80;;
45940;SDS011;31858;46.008;8.978;2024-01-25T17:24:31;89.75;;;66.57;;
45940;SDS011;31858;46.008;8.978;2024-01-25T17:34:34;93.78;;;64.68;;
45940;SDS011;31858;46.008;8.978;2024-01-25T17:44:37;86.75;;;64.15;;
45940;SDS011;31858;46.008;8.978;2024-01-25T17:54:40;91.38;;;66.05;;
45940;SDS011;31858;46.008;8.978;2024-01-25T18:04:42;85.18;;;58.70;;
45940;SDS011;31858;46.008;8.978;2024-01-25T18:14:45;70.07;;;50.35;;
45940;SDS011;31858;46.008;8.978;2024-01-25T18:24:47;67.75;;;45.72;;
45940;SDS011;31858;46.008;8.978;2024-01-25T18:34:50;67.18;;;46.13;;
45940;SDS011;31858;46.008;8.978;2024-01-25T18:44:52;53.65;;;35.83;;
45940;SDS011;31858;46.008;8.978;2024-01-25T18:54:56;54.22;;;39.17;;
45940;SDS011;31858;46.008;8.978;2024-01-25T19:04:59;43.60;;;33.08;;
45940;SDS011;31858;46.008;8.978;2024-01-25T19:15:05;57.65;;;41.67;;
45940;SDS011;31858;46.008;8.978;2024-01-25T19:25:08;52.33;;;36.20;;
45940;SDS011;31858;46.008;8.978;2024-01-25T19:35:12;66.85;;;49.85;;
45940;SDS011;31858;46.008;8.978;2024-01-25T19:45:15;82.45;;;55.92;;
45940;SDS011;31858;46.008;8.978;2024-01-25T19:55:18;77.30;;;56.13;;
45940;SDS011;31858;46.008;8.978;2024-01-25T20:05:21;71.03;;;51.95;;
45940;SDS011;31858;46.008;8.978;2024-01-25T20:15:26;64.40;;;43.63;;
45940;SDS011;31858;46.008;8.978;2024-01-25T20:25:28;58.35;;;39.80;;
45940;SDS011;31858;46.008;8.978;2024-01-25T20:35:32;50.80;;;33.15;;
45940;SDS011;31858;46.008;8.978;2024-01-25T20:45:35;46.58;;;27.55;;
45940;SDS011;31858;46.008;8.978;2024-01-25T20:55:39;42.33;;;28.13;;
45940;SDS011;31858;46.008;8.978;2024-01-25T21:05:41;48.58;;;31.02;;
45940;SDS011;31858;46.008;8.978;2024-01-25T21:15:46;46.53;;;27.90;;
45940;SDS011;31858;46.008;8.978;2024-01-25T21:25:48;39.70;;;26.67;;
45940;SDS011;31858;46.008;8.978;2024-01-25T21:35:51;59.13;;;39.45;;
45940;SDS011;31858;46.008;8.978;2024-01-25T21:45:53;27.75;;;17.60;;
45940;SDS011;31858;46.008;8.978;2024-01-25T21:55:56;29.73;;;19.80;;
45940;SDS011;31858;46.008;8.978;2024-01-25T22:05:58;33.22;;;22.55;;
45940;SDS011;31858;46.008;8.978;2024-01-25T22:16:01;28.30;;;19.23;;
45940;SDS011;31858;46.008;8.978;2024-01-25T22:26:03;34.08;;;23.20;;
45940;SDS011;31858;46.008;8.978;2024-01-25T22:36:06;40.47;;;25.45;;
45940;SDS011;31858;46.008;8.978;2024-01-25T22:46:08;42.97;;;27.38;;
45940;SDS011;31858;46.008;8.978;2024-01-25T22:56:11;32.78;;;20.13;;
45940;SDS011;31858;46.008;8.978;2024-01-25T23:06:14;34.75;;;22.90;;
45940;SDS011;31858;46.008;8.978;2024-01-25T23:16:17;46.22;;;29.90;;
45940;SDS011;31858;46.008;8.978;2024-01-25T23:26:19;44.72;;;31.13;;
45940;SDS011;31858;46.008;8.978;2024-01-25T23:36:22;45.90;;;30.40;;
45940;SDS011;31858;46.008;8.978;2024-01-25T23:46:23;45.50;;;31.13;;
45940;SDS011;31858;46.008;8.978;2024-01-25T23:56:26;23.90;;;17.30;;
